sensor_id;sensor_type;location;lat;lon;timestamp;P1;durP1;ratioP1;P2;durP2;ratioP2
14241;SDS011;7205;50.864;12.766;2024-01-30T00:01:19;4.80;;;1.90;;
14241;SDS011;7205;50.864;12.766;2024-01-30T00:03:46;1.80;;;1.70;;
14241;SDS011;7205;50.864;12.766;2024-01-30T00:06:13;2.20;;;2.00;;
14241;SDS011;7205;50.864;12.766;2024-01-30T00:08:41;2.27;;;2.13;;
14241;SDS011;7205;50.864;12.766;2024-01-30T00:11:11;2.27;;;2.03;;
14241;SDS011;7205;50.864;12.766;2024-01-30T00:13:38;3.20;;;2.37;;
14241;SDS011;7205;50.864;12.766;2024-01-30T00:16:05;1.87;;;1.77;;
14241;SDS011;7205;50.864;12.766;2024-01-30T00:18:33;3.13;;;2.83;;
14241;SDS011;7205;50.864;12.766;2024-01-30T00:21:00;2.60;;;2.40;;
14241;SDS011;7205;50.864;12.766;2024-01-30T00:23:27;2.13;;;2.00;;
14241;SDS011;7205;50.864;12.766;2024-01-30T00:25:55;5.50;;;2.47;;
14241;SDS011;7205;50.864;12.766;2024-01-30T00:28:22;2.00;;;1.90;;
14241;SDS011;7205;50.864;12.766;2024-01-30T00:30:49;2.80;;;2.60;;
14241;SDS011;7205;50.864;12.766;2024-01-30T00:33:16;2.87;;;2.17;;
14241;SDS011;7205;50.864;12.766;2024-01-30T00:35:42;1.40;;;1.30;;
14241;SDS011;7205;50.864;12.766;2024-01-30T00:38:09;1.77;;;1.67;;
14241;SDS011;7205;50.864;12.766;2024-01-30T00:40:36;1.63;;;1.53;;
14241;SDS011;7205;50.864;12.766;2024-01-30T00:43:04;2.20;;;2.00;;
14241;SDS011;7205;50.864;12.766;2024-01-30T00:45:31;2.77;;;2.57;;
14241;SDS011;7205;50.864;12.766;2024-01-30T00:47:58;2.20;;;2.00;;
14241;SDS011;7205;50.864;12.766;2024-01-30T00:50:24;2.63;;;2.30;;
14241;SDS011;7205;50.864;12.766;2024-01-30T00:52:51;2.73;;;2.30;;
14241;SDS011;7205;50.864;12.766;2024-01-30T00:55:18;3.37;;;1.90;;
14241;SDS011;7205;50.864;12.766;2024-01-30T00:57:45;1.90;;;1.80;;
14241;SDS011;7205;50.864;12.766;2024-01-30T01:00:14;2.60;;;2.40;;
14241;SDS011;7205;50.864;12.766;2024-01-30T01:02:42;2.93;;;2.43;;
14241;SDS011;7205;50.864;12.766;2024-01-30T01:05:09;2.93;;;1.93;;
14241;SDS011;7205;50.864;12.766;2024-01-30T01:07:36;2.53;;;2.33;;
14241;SDS011;7205;50.864;12.766;2024-01-30T01:10:03;1.70;;;1.60;;
14241;SDS011;7205;50.864;12.766;2024-01-30T01:12:31;2.33;;;2.13;;
14241;SDS011;7205;50.864;12.766;2024-01-30T01:14:57;2.93;;;2.53;;
14241;SDS011;7205;50.864;12.766;2024-01-30T01:17:26;1.60;;;1.50;;
14241;SDS011;7205;50.864;12.766;2024-01-30T01:19:52;2.40;;;2.20;;
14241;SDS011;7205;50.864;12.766;2024-01-30T01:22:19;2.37;;;2.17;;
14241;SDS011;7205;50.864;12.766;2024-01-30T01:24:46;1.90;;;1.80;;
14241;SDS011;7205;50.864;12.766;2024-01-30T01:27:13;2.10;;;1.93;;
14241;SDS011;7205;50.864;12.766;2024-01-30T01:29:39;2.07;;;1.50;;
14241;SDS011;7205;50.864;12.766;2024-01-30T01:32:06;1.93;;;1.80;;
14241;SDS011;7205;50.864;12.766;2024-01-30T01:34:34;1.83;;;1.73;;
14241;SDS011;7205;50.864;12.766;2024-01-30T01:37:01;1.87;;;1.77;;
14241;SDS011;7205;50.864;12.766;2024-01-30T01:39:28;1.83;;;1.73;;
14241;SDS011;7205;50.864;12.766;2024-01-30T01:41:55;1.50;;;1.40;;
14241;SDS011;7205;50.864;12.766;2024-01-30T01:44:21;1.07;;;1.03;;
14241;SDS011;7205;50.864;12.766;2024-01-30T01:46:48;1.67;;;1.30;;
14241;SDS011;7205;50.864;12.766;2024-01-30T01:49:15;1.30;;;1.27;;
14241;SDS011;7205;50.864;12.766;2024-01-30T01:51:43;1.23;;;1.13;;
14241;SDS011;7205;50.864;12.766;2024-01-30T01:54:13;1.53;;;1.27;;
14241;SDS011;7205;50.864;12.766;2024-01-30T01:56:40;1.60;;;1.30;;
14241;SDS011;7205;50.864;12.766;2024-01-30T01:59:09;1.30;;;1.20;;
14241;SDS011;7205;50.864;12.766;2024-01-30T02:01:36;2.80;;;1.40;;
14241;SDS011;7205;50.864;12.766;2024-01-30T02:04:03;0.90;;;0.90;;
14241;SDS011;7205;50.864;12.766;2024-01-30T02:06:30;1.30;;;1.20;;
14241;SDS011;7205;50.864;12.766;2024-01-30T02:08:59;1.20;;;1.10;;
14241;SDS011;7205;50.864;12.766;2024-01-30T02:11:26;2.60;;;1.50;;
14241;SDS011;7205;50.864;12.766;2024-01-30T02:13:54;1.40;;;1.30;;
14241;SDS011;7205;50.864;12.766;2024-01-30T02:16:21;1.37;;;1.27;;
14241;SDS011;7205;50.864;12.766;2024-01-30T02:18:48;1.43;;;1.33;;
14241;SDS011;7205;50.864;12.766;2024-01-30T02:21:16;1.50;;;1.40;;
14241;SDS011;7205;50.864;12.766;2024-01-30T02:23:43;1.47;;;1.37;;
14241;SDS011;7205;50.864;12.766;2024-01-30T02:26:12;1.30;;;1.20;;
14241;SDS011;7205;50.864;12.766;2024-01-30T02:28:39;1.60;;;1.43;;
14241;SDS011;7205;50.864;12.766;2024-01-30T02:31:06;1.40;;;1.30;;
14241;SDS011;7205;50.864;12.766;2024-01-30T02:33:33;1.60;;;1.33;;
14241;SDS011;7205;50.864;12.766;2024-01-30T02:35:59;1.53;;;1.43;;
14241;SDS011;7205;50.864;12.766;2024-01-30T02:38:28;1.63;;;1.20;;
14241;SDS011;7205;50.864;12.766;2024-01-30T02:40:55;2.30;;;1.37;;
14241;SDS011;7205;50.864;12.766;2024-01-30T02:43:22;1.30;;;1.20;;
14241;SDS011;7205;50.864;12.766;2024-01-30T02:45:49;1.20;;;1.10;;
14241;SDS011;7205;50.864;12.766;2024-01-30T02:48:15;1.10;;;1.00;;
14241;SDS011;7205;50.864;12.766;2024-01-30T02:50:42;1.50;;;1.20;;
14241;SDS011;7205;50.864;12.766;2024-01-30T02:53:09;1.30;;;1.20;;
14241;SDS011;7205;50.864;12.766;2024-01-30T02:55:37;1.37;;;1.27;;
14241;SDS011;7205;50.864;12.766;2024-01-30T02:58:04;1.47;;;1.00;;
14241;SDS011;7205;50.864;12.766;2024-01-30T03:00:32;1.20;;;1.10;;
14241;SDS011;7205;50.864;12.766;2024-01-30T03:02:58;1.73;;;1.37;;
14241;SDS011;7205;50.864;12.766;2024-01-30T03:05:25;1.30;;;1.20;;
14241;SDS011;7205;50.864;12.766;2024-01-30T03:07:52;1.63;;;1.30;;
14241;SDS011;7205;50.864;12.766;2024-01-30T03:10:19;2.23;;;1.17;;
14241;SDS011;7205;50.864;12.766;2024-01-30T03:12:47;1.00;;;1.00;;
14241;SDS011;7205;50.864;12.766;2024-01-30T03:15:14;1.03;;;1.00;;
14241;SDS011;7205;50.864;12.766;2024-01-30T03:17:41;2.33;;;1.40;;
14241;SDS011;7205;50.864;12.766;2024-01-30T03:20:07;1.23;;;1.20;;
14241;SDS011;7205;50.864;12.766;2024-01-30T03:22:35;1.60;;;1.50;;
14241;SDS011;7205;50.864;12.766;2024-01-30T03:25:02;1.63;;;1.53;;
14241;SDS011;7205;50.864;12.766;2024-01-30T03:27:29;1.20;;;1.10;;
14241;SDS011;7205;50.864;12.766;2024-01-30T03:29:57;1.37;;;1.27;;
14241;SDS011;7205;50.864;12.766;2024-01-30T03:32:24;1.37;;;1.07;;
14241;SDS011;7205;50.864;12.766;2024-01-30T03:34:51;1.30;;;1.20;;
14241;SDS011;7205;50.864;12.766;2024-01-30T03:37:18;1.10;;;1.00;;
14241;SDS011;7205;50.864;12.766;2024-01-30T03:39:44;1.30;;;1.20;;
14241;SDS011;7205;50.864;12.766;2024-01-30T03:42:11;1.07;;;1.07;;
14241;SDS011;7205;50.864;12.766;2024-01-30T03:44:38;1.90;;;1.10;;
14241;SDS011;7205;50.864;12.766;2024-01-30T03:47:06;2.40;;;1.37;;
14241;SDS011;7205;50.864;12.766;2024-01-30T03:49:33;1.60;;;1.17;;
14241;SDS011;7205;50.864;12.766;2024-01-30T03:52:00;2.03;;;1.57;;
14241;SDS011;7205;50.864;12.766;2024-01-30T03:54:27;1.90;;;1.37;;
14241;SDS011;7205;50.864;12.766;2024-01-30T03:56:53;1.43;;;1.10;;
14241;SDS011;7205;50.864;12.766;2024-01-30T03:59:20;2.40;;;1.20;;
14241;SDS011;7205;50.864;12.766;2024-01-30T04:01:49;1.17;;;1.07;;
14241;SDS011;7205;50.864;12.766;2024-01-30T04:04:17;1.40;;;1.30;;
14241;SDS011;7205;50.864;12.766;2024-01-30T04:06:44;1.10;;;1.00;;
14241;SDS011;7205;50.864;12.766;2024-01-30T04:09:12;1.10;;;1.10;;
14241;SDS011;7205;50.864;12.766;2024-01-30T04:11:40;1.10;;;1.10;;
14241;SDS011;7205;50.864;12.766;2024-01-30T04:14:07;1.43;;;1.33;;
14241;SDS011;7205;50.864;12.766;2024-01-30T04:16:33;1.00;;;1.00;;
14241;SDS011;7205;50.864;12.766;2024-01-30T04:19:01;1.13;;;1.03;;
14241;SDS011;7205;50.864;12.766;2024-01-30T04:21:32;1.80;;;1.10;;
14241;SDS011;7205;50.864;12.766;2024-01-30T04:23:59;1.40;;;1.30;;
14241;SDS011;7205;50.864;12.766;2024-01-30T04:26:26;1.37;;;1.23;;
14241;SDS011;7205;50.864;12.766;2024-01-30T04:28:53;1.00;;;1.00;;
14241;SDS011;7205;50.864;12.766;2024-01-30T04:31:19;1.10;;;1.00;;
14241;SDS011;7205;50.864;12.766;2024-01-30T04:33:46;1.20;;;1.10;;
14241;SDS011;7205;50.864;12.766;2024-01-30T04:36:13;1.00;;;1.00;;
14241;SDS011;7205;50.864;12.766;2024-01-30T04:38:41;1.20;;;1.03;;
14241;SDS011;7205;50.864;12.766;2024-01-30T04:41:08;1.30;;;1.20;;
14241;SDS011;7205;50.864;12.766;2024-01-30T04:43:35;1.30;;;1.20;;
14241;SDS011;7205;50.864;12.766;2024-01-30T04:46:02;0.97;;;0.97;;
14241;SDS011;7205;50.864;12.766;2024-01-30T04:48:28;1.30;;;1.20;;
14241;SDS011;7205;50.864;12.766;2024-01-30T04:50:55;0.90;;;0.90;;
14241;SDS011;7205;50.864;12.766;2024-01-30T04:53:22;1.10;;;1.00;;
14241;SDS011;7205;50.864;12.766;2024-01-30T04:55:50;1.00;;;0.97;;
14241;SDS011;7205;50.864;12.766;2024-01-30T04:58:17;1.60;;;1.23;;
14241;SDS011;7205;50.864;12.766;2024-01-30T05:00:44;1.40;;;1.30;;
14241;SDS011;7205;50.864;12.766;2024-01-30T05:03:16;1.20;;;1.10;;
14241;SDS011;7205;50.864;12.766;2024-01-30T05:05:43;1.10;;;1.10;;
14241;SDS011;7205;50.864;12.766;2024-01-30T05:08:10;1.47;;;1.17;;
14241;SDS011;7205;50.864;12.766;2024-01-30T05:10:36;2.37;;;1.07;;
14241;SDS011;7205;50.864;12.766;2024-01-30T05:13:05;1.00;;;1.00;;
14241;SDS011;7205;50.864;12.766;2024-01-30T05:15:31;0.93;;;0.93;;
14241;SDS011;7205;50.864;12.766;2024-01-30T05:17:58;2.07;;;0.97;;
14241;SDS011;7205;50.864;12.766;2024-01-30T05:20:25;1.30;;;1.20;;
14241;SDS011;7205;50.864;12.766;2024-01-30T05:22:53;1.20;;;1.10;;
14241;SDS011;7205;50.864;12.766;2024-01-30T05:25:20;1.27;;;1.17;;
14241;SDS011;7205;50.864;12.766;2024-01-30T05:27:46;1.30;;;1.10;;
14241;SDS011;7205;50.864;12.766;2024-01-30T05:30:15;1.33;;;0.97;;
14241;SDS011;7205;50.864;12.766;2024-01-30T05:32:41;1.93;;;1.10;;
14241;SDS011;7205;50.864;12.766;2024-01-30T05:35:09;2.63;;;1.40;;
14241;SDS011;7205;50.864;12.766;2024-01-30T05:37:36;1.67;;;1.57;;
14241;SDS011;7205;50.864;12.766;2024-01-30T05:40:03;1.53;;;1.43;;
14241;SDS011;7205;50.864;12.766;2024-01-30T05:42:31;7.27;;;1.40;;
14241;SDS011;7205;50.864;12.766;2024-01-30T05:44:57;1.83;;;1.10;;
14241;SDS011;7205;50.864;12.766;2024-01-30T05:47:26;2.23;;;1.07;;
14241;SDS011;7205;50.864;12.766;2024-01-30T05:49:52;1.20;;;1.10;;
14241;SDS011;7205;50.864;12.766;2024-01-30T05:52:19;1.77;;;1.67;;
14241;SDS011;7205;50.864;12.766;2024-01-30T05:54:46;1.40;;;1.30;;
14241;SDS011;7205;50.864;12.766;2024-01-30T05:57:13;4.30;;;1.50;;
14241;SDS011;7205;50.864;12.766;2024-01-30T05:59:40;1.07;;;1.07;;
14241;SDS011;7205;50.864;12.766;2024-01-30T06:02:07;1.50;;;1.40;;
14241;SDS011;7205;50.864;12.766;2024-01-30T06:04:35;2.40;;;1.63;;
14241;SDS011;7205;50.864;12.766;2024-01-30T06:07:02;1.60;;;1.50;;
14241;SDS011;7205;50.864;12.766;2024-01-30T06:09:30;1.43;;;1.27;;
14241;SDS011;7205;50.864;12.766;2024-01-30T06:11:57;2.63;;;1.43;;
14241;SDS011;7205;50.864;12.766;2024-01-30T06:14:24;1.60;;;1.33;;
14241;SDS011;7205;50.864;12.766;2024-01-30T06:16:51;1.73;;;0.90;;
14241;SDS011;7205;50.864;12.766;2024-01-30T06:19:18;1.17;;;0.90;;
14241;SDS011;7205;50.864;12.766;2024-01-30T06:21:46;1.23;;;1.17;;
14241;SDS011;7205;50.864;12.766;2024-01-30T06:24:13;7.13;;;1.83;;
14241;SDS011;7205;50.864;12.766;2024-01-30T06:26:40;2.00;;;1.10;;
14241;SDS011;7205;50.864;12.766;2024-01-30T06:29:06;1.30;;;1.20;;
14241;SDS011;7205;50.864;12.766;2024-01-30T06:31:39;4.20;;;1.67;;
14241;SDS011;7205;50.864;12.766;2024-01-30T06:34:06;2.80;;;1.27;;
14241;SDS011;7205;50.864;12.766;2024-01-30T06:36:33;2.20;;;1.73;;
14241;SDS011;7205;50.864;12.766;2024-01-30T06:39:01;1.80;;;1.10;;
14241;SDS011;7205;50.864;12.766;2024-01-30T06:41:28;1.50;;;1.27;;
14241;SDS011;7205;50.864;12.766;2024-01-30T06:43:55;1.10;;;1.10;;
14241;SDS011;7205;50.864;12.766;2024-01-30T06:46:22;2.10;;;1.30;;
14241;SDS011;7205;50.864;12.766;2024-01-30T06:48:49;3.80;;;1.40;;
14241;SDS011;7205;50.864;12.766;2024-01-30T06:51:16;1.13;;;1.03;;
14241;SDS011;7205;50.864;12.766;2024-01-30T06:53:42;1.57;;;1.13;;
14241;SDS011;7205;50.864;12.766;2024-01-30T06:56:10;1.43;;;1.23;;
14241;SDS011;7205;50.864;12.766;2024-01-30T06:58:37;2.40;;;1.23;;
14241;SDS011;7205;50.864;12.766;2024-01-30T07:01:04;1.67;;;1.20;;
14241;SDS011;7205;50.864;12.766;2024-01-30T07:03:34;1.30;;;1.20;;
14241;SDS011;7205;50.864;12.766;2024-01-30T07:06:01;1.47;;;1.37;;
14241;SDS011;7205;50.864;12.766;2024-01-30T07:08:28;2.70;;;1.10;;
14241;SDS011;7205;50.864;12.766;2024-01-30T07:10:55;2.67;;;1.73;;
14241;SDS011;7205;50.864;12.766;2024-01-30T07:13:25;1.87;;;1.57;;
14241;SDS011;7205;50.864;12.766;2024-01-30T07:15:54;3.83;;;2.03;;
14241;SDS011;7205;50.864;12.766;2024-01-30T07:18:23;3.73;;;2.10;;
14241;SDS011;7205;50.864;12.766;2024-01-30T07:20:50;1.80;;;1.40;;
14241;SDS011;7205;50.864;12.766;2024-01-30T07:23:17;2.10;;;1.90;;
14241;SDS011;7205;50.864;12.766;2024-01-30T07:25:44;2.57;;;1.90;;
14241;SDS011;7205;50.864;12.766;2024-01-30T07:28:11;2.57;;;1.53;;
14241;SDS011;7205;50.864;12.766;2024-01-30T07:30:40;1.70;;;1.60;;
14241;SDS011;7205;50.864;12.766;2024-01-30T07:33:07;6.03;;;2.40;;
14241;SDS011;7205;50.864;12.766;2024-01-30T07:35:34;2.37;;;1.50;;
14241;SDS011;7205;50.864;12.766;2024-01-30T07:38:01;3.57;;;1.83;;
14241;SDS011;7205;50.864;12.766;2024-01-30T07:40:28;6.83;;;2.17;;
14241;SDS011;7205;50.864;12.766;2024-01-30T07:42:55;4.43;;;2.17;;
14241;SDS011;7205;50.864;12.766;2024-01-30T07:45:22;6.33;;;1.60;;
14241;SDS011;7205;50.864;12.766;2024-01-30T07:47:51;5.33;;;2.63;;
14241;SDS011;7205;50.864;12.766;2024-01-30T07:50:18;2.53;;;1.90;;
14241;SDS011;7205;50.864;12.766;2024-01-30T07:52:45;3.10;;;1.47;;
14241;SDS011;7205;50.864;12.766;2024-01-30T07:55:14;7.80;;;3.00;;
14241;SDS011;7205;50.864;12.766;2024-01-30T07:57:41;1.10;;;1.10;;
14241;SDS011;7205;50.864;12.766;2024-01-30T08:00:08;1.00;;;0.90;;
14241;SDS011;7205;50.864;12.766;2024-01-30T08:02:35;1.53;;;1.43;;
14241;SDS011;7205;50.864;12.766;2024-01-30T08:05:22;0.87;;;0.87;;
14241;SDS011;7205;50.864;12.766;2024-01-30T08:07:49;1.67;;;1.50;;
14241;SDS011;7205;50.864;12.766;2024-01-30T08:10:16;3.77;;;2.13;;
14241;SDS011;7205;50.864;12.766;2024-01-30T08:12:44;1.60;;;1.40;;
14241;SDS011;7205;50.864;12.766;2024-01-30T08:15:12;1.33;;;1.20;;
14241;SDS011;7205;50.864;12.766;2024-01-30T08:17:38;4.03;;;1.90;;
14241;SDS011;7205;50.864;12.766;2024-01-30T08:20:06;3.23;;;1.80;;
14241;SDS011;7205;50.864;12.766;2024-01-30T08:22:37;2.00;;;1.80;;
14241;SDS011;7205;50.864;12.766;2024-01-30T08:25:05;3.00;;;2.07;;
14241;SDS011;7205;50.864;12.766;2024-01-30T08:27:32;2.83;;;1.57;;
14241;SDS011;7205;50.864;12.766;2024-01-30T08:30:00;2.70;;;1.57;;
14241;SDS011;7205;50.864;12.766;2024-01-30T08:32:28;3.03;;;1.60;;
14241;SDS011;7205;50.864;12.766;2024-01-30T08:34:54;2.17;;;1.63;;
14241;SDS011;7205;50.864;12.766;2024-01-30T08:37:21;1.47;;;1.37;;
14241;SDS011;7205;50.864;12.766;2024-01-30T08:39:50;1.83;;;1.70;;
14241;SDS011;7205;50.864;12.766;2024-01-30T08:42:17;1.67;;;1.57;;
14241;SDS011;7205;50.864;12.766;2024-01-30T08:44:47;4.27;;;3.77;;
14241;SDS011;7205;50.864;12.766;2024-01-30T08:47:14;2.40;;;1.80;;
14241;SDS011;7205;50.864;12.766;2024-01-30T08:49:42;3.50;;;2.80;;
14241;SDS011;7205;50.864;12.766;2024-01-30T08:52:10;3.37;;;3.00;;
14241;SDS011;7205;50.864;12.766;2024-01-30T08:54:39;1.77;;;1.67;;
14241;SDS011;7205;50.864;12.766;2024-01-30T08:57:07;3.90;;;3.60;;
14241;SDS011;7205;50.864;12.766;2024-01-30T08:59:34;3.70;;;3.10;;
14241;SDS011;7205;50.864;12.766;2024-01-30T09:02:01;2.27;;;2.17;;
14241;SDS011;7205;50.864;12.766;2024-01-30T09:04:28;3.20;;;1.90;;
14241;SDS011;7205;50.864;12.766;2024-01-30T09:06:55;2.63;;;2.00;;
14241;SDS011;7205;50.864;12.766;2024-01-30T09:09:22;4.33;;;2.43;;
14241;SDS011;7205;50.864;12.766;2024-01-30T09:11:49;1.70;;;1.60;;
14241;SDS011;7205;50.864;12.766;2024-01-30T09:14:17;2.33;;;1.70;;
14241;SDS011;7205;50.864;12.766;2024-01-30T09:16:44;5.73;;;1.70;;
14241;SDS011;7205;50.864;12.766;2024-01-30T09:19:11;1.80;;;1.70;;
14241;SDS011;7205;50.864;12.766;2024-01-30T09:21:38;3.10;;;2.13;;
14241;SDS011;7205;50.864;12.766;2024-01-30T09:24:05;4.87;;;2.23;;
14241;SDS011;7205;50.864;12.766;2024-01-30T09:26:32;1.90;;;1.80;;
14241;SDS011;7205;50.864;12.766;2024-01-30T09:28:59;4.87;;;1.73;;
14241;SDS011;7205;50.864;12.766;2024-01-30T09:31:28;3.63;;;1.70;;
14241;SDS011;7205;50.864;12.766;2024-01-30T09:33:55;2.60;;;1.77;;
14241;SDS011;7205;50.864;12.766;2024-01-30T09:36:21;5.17;;;1.70;;
14241;SDS011;7205;50.864;12.766;2024-01-30T09:38:48;2.20;;;2.00;;
14241;SDS011;7205;50.864;12.766;2024-01-30T09:41:15;2.10;;;2.00;;
14241;SDS011;7205;50.864;12.766;2024-01-30T09:43:44;4.00;;;2.67;;
14241;SDS011;7205;50.864;12.766;2024-01-30T09:46:17;2.17;;;2.07;;
14241;SDS011;7205;50.864;12.766;2024-01-30T09:48:49;2.50;;;2.30;;
14241;SDS011;7205;50.864;12.766;2024-01-30T09:51:17;2.30;;;2.10;;
14241;SDS011;7205;50.864;12.766;2024-01-30T09:53:45;1.87;;;1.77;;
14241;SDS011;7205;50.864;12.766;2024-01-30T09:56:14;3.53;;;2.40;;
14241;SDS011;7205;50.864;12.766;2024-01-30T09:58:42;3.00;;;2.73;;
14241;SDS011;7205;50.864;12.766;2024-01-30T10:01:08;2.93;;;2.70;;
14241;SDS011;7205;50.864;12.766;2024-01-30T10:03:36;2.10;;;1.93;;
14241;SDS011;7205;50.864;12.766;2024-01-30T10:06:04;2.50;;;2.30;;
14241;SDS011;7205;50.864;12.766;2024-01-30T10:08:32;3.63;;;2.13;;
14241;SDS011;7205;50.864;12.766;2024-01-30T10:10:59;2.87;;;2.57;;
14241;SDS011;7205;50.864;12.766;2024-01-30T10:13:27;3.37;;;2.50;;
14241;SDS011;7205;50.864;12.766;2024-01-30T10:15:53;3.40;;;3.10;;
14241;SDS011;7205;50.864;12.766;2024-01-30T10:18:22;4.10;;;3.70;;
14241;SDS011;7205;50.864;12.766;2024-01-30T10:20:49;3.70;;;3.20;;
14241;SDS011;7205;50.864;12.766;2024-01-30T10:23:17;2.50;;;2.30;;
14241;SDS011;7205;50.864;12.766;2024-01-30T10:25:45;2.53;;;2.33;;
14241;SDS011;7205;50.864;12.766;2024-01-30T10:28:21;3.30;;;2.50;;
14241;SDS011;7205;50.864;12.766;2024-01-30T10:30:56;3.53;;;3.23;;
14241;SDS011;7205;50.864;12.766;2024-01-30T10:33:27;2.93;;;2.43;;
14241;SDS011;7205;50.864;12.766;2024-01-30T10:35:55;3.03;;;2.40;;
14241;SDS011;7205;50.864;12.766;2024-01-30T10:38:35;3.87;;;3.03;;
14241;SDS011;7205;50.864;12.766;2024-01-30T10:41:09;3.60;;;2.90;;
14241;SDS011;7205;50.864;12.766;2024-01-30T10:43:42;3.87;;;2.43;;
14241;SDS011;7205;50.864;12.766;2024-01-30T10:46:31;3.00;;;2.67;;
14241;SDS011;7205;50.864;12.766;2024-01-30T10:49:15;2.60;;;2.20;;
14241;SDS011;7205;50.864;12.766;2024-01-30T10:52:00;2.60;;;2.40;;
14241;SDS011;7205;50.864;12.766;2024-01-30T10:59:07;3.10;;;2.80;;
14241;SDS011;7205;50.864;12.766;2024-01-30T11:05:51;2.40;;;2.20;;
14241;SDS011;7205;50.864;12.766;2024-01-30T11:09:16;3.37;;;2.33;;
14241;SDS011;7205;50.864;12.766;2024-01-30T11:16:51;3.87;;;2.90;;
14241;SDS011;7205;50.864;12.766;2024-01-30T11:19:22;2.50;;;2.30;;
14241;SDS011;7205;50.864;12.766;2024-01-30T11:21:50;3.67;;;2.47;;
14241;SDS011;7205;50.864;12.766;2024-01-30T11:24:19;2.90;;;2.40;;
14241;SDS011;7205;50.864;12.766;2024-01-30T11:26:47;3.63;;;2.67;;
14241;SDS011;7205;50.864;12.766;2024-01-30T11:29:14;3.50;;;2.67;;
14241;SDS011;7205;50.864;12.766;2024-01-30T11:31:52;2.80;;;2.60;;
14241;SDS011;7205;50.864;12.766;2024-01-30T11:34:20;3.40;;;2.80;;
14241;SDS011;7205;50.864;12.766;2024-01-30T11:36:48;3.77;;;2.73;;
14241;SDS011;7205;50.864;12.766;2024-01-30T11:39:20;5.23;;;2.60;;
14241;SDS011;7205;50.864;12.766;2024-01-30T11:41:47;2.67;;;2.47;;
14241;SDS011;7205;50.864;12.766;2024-01-30T11:44:17;3.97;;;2.50;;
14241;SDS011;7205;50.864;12.766;2024-01-30T11:46:45;6.10;;;2.93;;
14241;SDS011;7205;50.864;12.766;2024-01-30T11:49:14;2.73;;;2.53;;
14241;SDS011;7205;50.864;12.766;2024-01-30T11:51:42;4.73;;;2.30;;
14241;SDS011;7205;50.864;12.766;2024-01-30T11:54:13;2.90;;;2.50;;
14241;SDS011;7205;50.864;12.766;2024-01-30T11:56:41;3.47;;;2.70;;
14241;SDS011;7205;50.864;12.766;2024-01-30T11:59:08;5.10;;;3.00;;
14241;SDS011;7205;50.864;12.766;2024-01-30T12:01:35;3.27;;;2.50;;
14241;SDS011;7205;50.864;12.766;2024-01-30T12:04:02;5.10;;;2.80;;
14241;SDS011;7205;50.864;12.766;2024-01-30T12:06:35;2.77;;;2.53;;
14241;SDS011;7205;50.864;12.766;2024-01-30T12:09:02;2.97;;;2.77;;
14241;SDS011;7205;50.864;12.766;2024-01-30T12:11:30;3.57;;;2.83;;
14241;SDS011;7205;50.864;12.766;2024-01-30T12:13:57;2.80;;;2.60;;
14241;SDS011;7205;50.864;12.766;2024-01-30T12:16:25;2.70;;;2.53;;
14241;SDS011;7205;50.864;12.766;2024-01-30T12:18:59;4.23;;;3.10;;
14241;SDS011;7205;50.864;12.766;2024-01-30T12:21:26;3.00;;;2.80;;
14241;SDS011;7205;50.864;12.766;2024-01-30T12:23:55;2.87;;;2.47;;
14241;SDS011;7205;50.864;12.766;2024-01-30T12:26:23;3.63;;;2.50;;
14241;SDS011;7205;50.864;12.766;2024-01-30T12:28:50;3.57;;;2.43;;
14241;SDS011;7205;50.864;12.766;2024-01-30T12:31:25;4.03;;;2.77;;
14241;SDS011;7205;50.864;12.766;2024-01-30T12:33:53;3.83;;;2.63;;
14241;SDS011;7205;50.864;12.766;2024-01-30T12:36:20;3.00;;;2.80;;
14241;SDS011;7205;50.864;12.766;2024-01-30T12:38:47;3.03;;;2.73;;
14241;SDS011;7205;50.864;12.766;2024-01-30T12:41:15;4.20;;;2.80;;
14241;SDS011;7205;50.864;12.766;2024-01-30T12:43:43;3.93;;;2.77;;
14241;SDS011;7205;50.864;12.766;2024-01-30T12:46:10;5.00;;;3.00;;
14241;SDS011;7205;50.864;12.766;2024-01-30T12:48:36;3.50;;;3.20;;
14241;SDS011;7205;50.864;12.766;2024-01-30T12:51:03;3.07;;;2.77;;
14241;SDS011;7205;50.864;12.766;2024-01-30T12:53:31;2.97;;;2.70;;
14241;SDS011;7205;50.864;12.766;2024-01-30T12:55:57;2.83;;;2.63;;
14241;SDS011;7205;50.864;12.766;2024-01-30T12:58:26;4.27;;;3.10;;
14241;SDS011;7205;50.864;12.766;2024-01-30T13:00:53;2.80;;;2.43;;
14241;SDS011;7205;50.864;12.766;2024-01-30T13:03:20;4.60;;;3.00;;
14241;SDS011;7205;50.864;12.766;2024-01-30T13:05:48;2.77;;;2.50;;
14241;SDS011;7205;50.864;12.766;2024-01-30T13:08:15;4.37;;;2.87;;
14241;SDS011;7205;50.864;12.766;2024-01-30T13:10:41;3.37;;;2.60;;
14241;SDS011;7205;50.864;12.766;2024-01-30T13:13:08;3.00;;;2.73;;
14241;SDS011;7205;50.864;12.766;2024-01-30T13:15:36;5.23;;;2.70;;
14241;SDS011;7205;50.864;12.766;2024-01-30T13:18:03;4.07;;;2.90;;
14241;SDS011;7205;50.864;12.766;2024-01-30T13:20:31;3.13;;;2.80;;
14241;SDS011;7205;50.864;12.766;2024-01-30T13:22:57;5.00;;;2.90;;
14241;SDS011;7205;50.864;12.766;2024-01-30T13:25:24;2.87;;;2.60;;
14241;SDS011;7205;50.864;12.766;2024-01-30T13:27:51;4.77;;;2.70;;
14241;SDS011;7205;50.864;12.766;2024-01-30T13:30:18;5.40;;;3.00;;
14241;SDS011;7205;50.864;12.766;2024-01-30T13:32:47;4.00;;;2.70;;
14241;SDS011;7205;50.864;12.766;2024-01-30T13:35:13;3.53;;;3.10;;
14241;SDS011;7205;50.864;12.766;2024-01-30T13:37:40;4.17;;;3.50;;
14241;SDS011;7205;50.864;12.766;2024-01-30T13:40:08;3.27;;;2.90;;
14241;SDS011;7205;50.864;12.766;2024-01-30T13:42:36;4.43;;;3.17;;
14241;SDS011;7205;50.864;12.766;2024-01-30T13:45:03;3.07;;;2.40;;
14241;SDS011;7205;50.864;12.766;2024-01-30T13:47:30;3.63;;;2.77;;
14241;SDS011;7205;50.864;12.766;2024-01-30T13:49:58;4.43;;;3.03;;
14241;SDS011;7205;50.864;12.766;2024-01-30T13:52:25;3.10;;;2.80;;
14241;SDS011;7205;50.864;12.766;2024-01-30T13:54:52;3.27;;;2.97;;
14241;SDS011;7205;50.864;12.766;2024-01-30T13:57:19;3.27;;;3.00;;
14241;SDS011;7205;50.864;12.766;2024-01-30T13:59:45;2.93;;;2.73;;
14241;SDS011;7205;50.864;12.766;2024-01-30T14:02:13;2.83;;;2.60;;
14241;SDS011;7205;50.864;12.766;2024-01-30T14:04:39;2.90;;;2.70;;
14241;SDS011;7205;50.864;12.766;2024-01-30T14:07:08;2.63;;;2.43;;
14241;SDS011;7205;50.864;12.766;2024-01-30T14:09:34;2.97;;;2.70;;
14241;SDS011;7205;50.864;12.766;2024-01-30T14:12:01;3.13;;;2.83;;
14241;SDS011;7205;50.864;12.766;2024-01-30T14:21:28;3.43;;;3.13;;
14241;SDS011;7205;50.864;12.766;2024-01-30T14:32:32;3.60;;;2.53;;
14241;SDS011;7205;50.864;12.766;2024-01-30T14:35:00;3.17;;;2.87;;
14241;SDS011;7205;50.864;12.766;2024-01-30T14:37:29;3.67;;;2.90;;
14241;SDS011;7205;50.864;12.766;2024-01-30T14:40:02;3.90;;;2.70;;
14241;SDS011;7205;50.864;12.766;2024-01-30T14:42:32;4.17;;;2.93;;
14241;SDS011;7205;50.864;12.766;2024-01-30T14:45:25;2.70;;;2.50;;
14241;SDS011;7205;50.864;12.766;2024-01-30T14:48:07;3.47;;;3.17;;
14241;SDS011;7205;50.864;12.766;2024-01-30T14:50:34;3.40;;;2.70;;
14241;SDS011;7205;50.864;12.766;2024-01-30T14:53:02;2.90;;;2.60;;
14241;SDS011;7205;50.864;12.766;2024-01-30T14:55:29;3.00;;;2.80;;
14241;SDS011;7205;50.864;12.766;2024-01-30T14:57:56;3.03;;;2.83;;
14241;SDS011;7205;50.864;12.766;2024-01-30T15:00:24;3.80;;;3.50;;
14241;SDS011;7205;50.864;12.766;2024-01-30T15:02:51;3.70;;;3.40;;
14241;SDS011;7205;50.864;12.766;2024-01-30T15:05:19;3.47;;;3.17;;
14241;SDS011;7205;50.864;12.766;2024-01-30T15:07:46;3.03;;;2.73;;
14241;SDS011;7205;50.864;12.766;2024-01-30T15:10:13;5.73;;;2.83;;
14241;SDS011;7205;50.864;12.766;2024-01-30T15:12:40;3.83;;;3.10;;
14241;SDS011;7205;50.864;12.766;2024-01-30T15:15:08;6.10;;;3.00;;
14241;SDS011;7205;50.864;12.766;2024-01-30T15:17:35;4.80;;;2.83;;
14241;SDS011;7205;50.864;12.766;2024-01-30T15:20:02;9.10;;;4.17;;
14241;SDS011;7205;50.864;12.766;2024-01-30T15:22:34;3.87;;;3.27;;